Time;durP1;ratioP1;P1;durP2;ratioP2;P2;SDS_P1;SDS_P2;PMS_P1;PMS_P2;Temp;Humidity;BMP_temperature;BMP_pressure;BME280_temperature;BME280_humidity;BME280_pressure;Samples;Min_cycle;Max_cycle;Signal;HPM_P1;HPM_P2
2021/04/29 00:00:19;;;;;;;0.10;0.10;;;;;;;;;;5141205;27;20233;-69
2021/04/29 00:02:45;;;;;;;0.10;0.10;;;;;;;;;;5140893;27;20197;-68
2021/04/29 00:05:13;;;;;;;0.10;0.10;;;;;;;;;;5140053;27;20497;-69
2021/04/29 00:07:39;;;;;;;0.10;0.10;;;;;;;;;;5145697;27;20199;-68
2021/04/29 00:10:05;;;;;;;0.10;0.10;;;;;;;;;;5145782;27;20367;-69
2021/04/29 00:12:32;;;;;;;0.10;0.10;;;;;;;;;;5145355;27;20197;-69
2021/04/29 00:14:57;;;;;;;0.10;0.10;;;;;;;;;;5145689;27;20228;-68
2021/04/29 00:17:23;;;;;;;0.10;0.10;;;;;;;;;;5135637;27;20488;-68
2021/04/29 00:19:49;;;;;;;0.10;0.10;;;;;;;;;;5144508;27;20227;-68
2021/04/29 00:22:15;;;;;;;0.10;0.10;;;;;;;;;;5144847;27;20355;-68
2021/04/29 00:24:41;;;;;;;0.10;0.10;;;;;;;;;;5131630;27;20208;-67
2021/04/29 00:27:06;;;;;;;0.10;0.10;;;;;;;;;;5133471;27;20542;-68
2021/04/29 00:29:33;;;;;;;0.10;0.10;;;;;;;;;;5141129;27;20200;-67
2021/04/29 00:31:59;;;;;;;0.10;0.10;;;;;;;;;;5145386;27;20212;-67
2021/04/29 00:34:24;;;;;;;0.10;0.10;;;;;;;;;;5142188;27;20216;-68
2021/04/29 00:36:51;;;;;;;0.10;0.10;;;;;;;;;;5145032;27;20204;-67
2021/04/29 00:39:16;;;;;;;0.10;0.10;;;;;;;;;;5136601;27;20586;-68
2021/04/29 00:41:42;;;;;;;0.10;0.10;;;;;;;;;;5139880;27;20228;-67
2021/04/29 00:44:08;;;;;;;0.33;0.33;;;;;;;;;;5145169;27;20228;-68
2021/04/29 00:46:35;;;;;;;0.10;0.10;;;;;;;;;;5133971;27;20259;-68
2021/04/29 00:49:01;;;;;;;0.10;0.10;;;;;;;;;;5130249;27;20200;-68
2021/04/29 00:51:27;;;;;;;0.10;0.10;;;;;;;;;;5145269;27;20203;-67
2021/04/29 00:53:53;;;;;;;0.10;0.10;;;;;;;;;;5131464;27;20396;-67
2021/04/29 00:56:20;;;;;;;0.10;0.10;;;;;;;;;;5144884;27;20410;-67
2021/04/29 00:58:47;;;;;;;0.10;0.10;;;;;;;;;;5137641;27;20565;-67
2021/04/29 01:01:13;;;;;;;0.10;0.10;;;;;;;;;;5140581;27;20197;-67
2021/04/29 01:03:42;;;;;;;0.10;0.10;;;;;;;;;;5144705;27;20205;-68
2021/04/29 01:06:12;;;;;;;0.10;0.10;;;;;;;;;;5144624;27;20393;-67
2021/04/29 01:08:40;;;;;;;0.10;0.10;;;;;;;;;;5143275;27;20243;-67
2021/04/29 01:11:09;;;;;;;0.10;0.10;;;;;;;;;;5144185;27;20219;-67
2021/04/29 01:13:36;;;;;;;0.10;0.10;;;;;;;;;;5136545;28;20204;-67
2021/04/29 01:16:02;;;;;;;0.10;0.10;;;;;;;;;;5130649;28;20520;-68
2021/04/29 01:18:28;;;;;;;0.10;0.10;;;;;;;;;;5136873;28;20198;-66
2021/04/29 01:21:00;;;;;;;0.10;0.10;;;;;;;;;;5128157;28;20405;-68
2021/04/29 01:23:28;;;;;;;0.10;0.10;;;;;;;;;;5143637;28;20285;-67
2021/04/29 01:25:57;;;;;;;0.10;0.10;;;;;;;;;;5129853;28;20549;-67
2021/04/29 01:28:24;;;;;;;0.10;0.10;;;;;;;;;;5144649;28;20204;-67
2021/04/29 01:30:50;;;;;;;0.10;0.10;;;;;;;;;;5144104;28;20220;-68
2021/04/29 01:33:16;;;;;;;0.10;0.10;;;;;;;;;;5144503;27;20399;-67
2021/04/29 01:35:42;;;;;;;0.10;0.10;;;;;;;;;;5144527;27;20204;-67
2021/04/29 01:38:08;;;;;;;0.10;0.10;;;;;;;;;;5144408;27;20239;-66
2021/04/29 01:40:34;;;;;;;0.10;0.10;;;;;;;;;;5134589;27;20304;-66
2021/04/29 01:43:00;;;;;;;0.10;0.10;;;;;;;;;;5139839;27;20203;-66
2021/04/29 01:45:26;;;;;;;0.20;0.20;;;;;;;;;;5132700;27;20200;-66
2021/04/29 01:47:52;;;;;;;0.10;0.10;;;;;;;;;;5148530;27;20216;-67
2021/04/29 01:50:18;;;;;;;0.10;0.10;;;;;;;;;;5132393;27;20197;-68
2021/04/29 01:52:44;;;;;;;0.10;0.10;;;;;;;;;;5136503;27;20203;-67
2021/04/29 01:55:10;;;;;;;0.10;0.10;;;;;;;;;;5147351;27;20196;-67
2021/04/29 01:57:36;;;;;;;0.10;0.10;;;;;;;;;;5137241;27;20276;-67
2021/04/29 02:00:05;;;;;;;0.10;0.10;;;;;;;;;;5134879;27;20248;-67
2021/04/29 02:02:39;;;;;;;0.10;0.10;;;;;;;;;;5142176;27;20203;-68
2021/04/29 02:05:05;;;;;;;0.10;0.10;;;;;;;;;;5140308;27;20270;-69
2021/04/29 02:07:31;;;;;;;0.10;0.10;;;;;;;;;;5148030;27;20302;-67
2021/04/29 02:09:57;;;;;;;0.10;0.10;;;;;;;;;;5142203;27;20207;-67
2021/04/29 02:12:23;;;;;;;0.10;0.10;;;;;;;;;;5148020;27;20275;-67
2021/04/29 02:14:51;;;;;;;0.10;0.10;;;;;;;;;;5143536;27;20239;-66
2021/04/29 02:17:22;;;;;;;0.10;0.10;;;;;;;;;;5127708;27;20205;-67
2021/04/29 02:19:49;;;;;;;0.10;0.10;;;;;;;;;;5148136;27;20211;-67
2021/04/29 02:22:16;;;;;;;0.10;0.10;;;;;;;;;;5147562;27;20232;-67
2021/04/29 02:24:42;;;;;;;0.10;0.10;;;;;;;;;;5141840;27;20209;-67
2021/04/29 02:27:09;;;;;;;0.10;0.10;;;;;;;;;;5139658;27;20206;-68
2021/04/29 02:29:35;;;;;;;0.10;0.10;;;;;;;;;;5143850;27;20476;-68
2021/04/29 02:32:01;;;;;;;0.10;0.10;;;;;;;;;;5137108;27;20209;-68
2021/04/29 02:34:26;;;;;;;0.10;0.10;;;;;;;;;;5147644;27;20203;-67
2021/04/29 02:36:53;;;;;;;0.10;0.10;;;;;;;;;;5147598;27;20492;-68
2021/04/29 02:39:19;;;;;;;0.10;0.10;;;;;;;;;;5142264;27;20289;-67
2021/04/29 02:41:45;;;;;;;0.10;0.10;;;;;;;;;;5131232;27;20338;-68
2021/04/29 02:44:10;;;;;;;0.10;0.10;;;;;;;;;;5139818;27;20322;-67
2021/04/29 02:46:39;;;;;;;0.10;0.10;;;;;;;;;;5127098;27;20209;-69
2021/04/29 02:49:08;;;;;;;0.10;0.10;;;;;;;;;;5134446;27;20194;-68
2021/04/29 02:51:35;;;;;;;0.10;0.10;;;;;;;;;;5132698;27;20199;-68
2021/04/29 02:54:02;;;;;;;0.10;0.10;;;;;;;;;;5147261;27;20203;-67
2021/04/29 02:56:27;;;;;;;0.20;0.20;;;;;;;;;;5135747;27;20220;-68
2021/04/29 02:58:53;;;;;;;0.10;0.10;;;;;;;;;;5143097;27;20216;-68
2021/04/29 03:01:19;;;;;;;0.10;0.10;;;;;;;;;;5147004;27;20228;-66
2021/04/29 03:03:45;;;;;;;0.10;0.10;;;;;;;;;;5132740;27;20295;-67
2021/04/29 03:06:11;;;;;;;0.10;0.10;;;;;;;;;;5139799;27;20229;-68
2021/04/29 03:08:36;;;;;;;0.10;0.10;;;;;;;;;;5133646;27;20204;-68
2021/04/29 03:11:03;;;;;;;0.10;0.10;;;;;;;;;;5145666;27;20204;-69
2021/04/29 03:13:29;;;;;;;0.10;0.10;;;;;;;;;;5146899;27;20215;-69
2021/04/29 03:15:55;;;;;;;0.10;0.10;;;;;;;;;;5146564;27;20206;-67
2021/04/29 03:18:21;;;;;;;0.10;0.10;;;;;;;;;;5146824;27;20202;-68
2021/04/29 03:20:47;;;;;;;0.10;0.10;;;;;;;;;;5131733;27;20566;-67
2021/04/29 03:23:12;;;;;;;0.10;0.10;;;;;;;;;;5126580;27;20238;-67
2021/04/29 03:25:38;;;;;;;0.10;0.10;;;;;;;;;;5138792;27;20198;-67
2021/04/29 03:28:05;;;;;;;0.10;0.10;;;;;;;;;;5132239;27;20204;-67
2021/04/29 03:30:31;;;;;;;0.10;0.10;;;;;;;;;;5146341;27;20200;-67
2021/04/29 03:32:57;;;;;;;0.10;0.10;;;;;;;;;;5143939;27;20441;-67
2021/04/29 03:35:22;;;;;;;0.20;0.20;;;;;;;;;;5146546;27;20209;-68
2021/04/29 03:37:48;;;;;;;0.10;0.10;;;;;;;;;;5135297;27;20273;-67
2021/04/29 03:40:14;;;;;;;0.10;0.10;;;;;;;;;;5146206;27;20472;-67
2021/04/29 03:42:40;;;;;;;0.10;0.10;;;;;;;;;;5146256;27;20208;-69
2021/04/29 03:45:07;;;;;;;0.10;0.10;;;;;;;;;;5137913;27;20209;-69
2021/04/29 03:47:33;;;;;;;0.10;0.10;;;;;;;;;;5146198;27;20207;-68
2021/04/29 03:49:59;;;;;;;0.10;0.10;;;;;;;;;;5146276;27;20447;-68
2021/04/29 03:52:25;;;;;;;0.10;0.10;;;;;;;;;;5145909;27;20204;-68
2021/04/29 03:54:50;;;;;;;0.10;0.10;;;;;;;;;;5145049;27;20211;-69
2021/04/29 03:57:16;;;;;;;3.80;3.70;;;;;;;;;;5131703;27;20205;-68
2021/04/29 03:59:42;;;;;;;0.10;0.10;;;;;;;;;;5145772;27;20235;-68
2021/04/29 04:02:10;;;;;;;0.10;0.10;;;;;;;;;;5136705;27;20201;-68
2021/04/29 04:04:36;;;;;;;0.10;0.10;;;;;;;;;;5135799;27;20210;-68
2021/04/29 04:07:02;;;;;;;0.10;0.10;;;;;;;;;;5137174;27;20422;-68
2021/04/29 04:09:27;;;;;;;0.10;0.10;;;;;;;;;;5140229;27;20388;-69
2021/04/29 04:11:53;;;;;;;0.10;0.10;;;;;;;;;;5145756;27;20197;-68
2021/04/29 04:14:19;;;;;;;0.10;0.10;;;;;;;;;;5138473;27;20201;-68
2021/04/29 04:16:45;;;;;;;0.10;0.10;;;;;;;;;;5132909;27;20202;-68
2021/04/29 04:19:11;;;;;;;0.10;0.10;;;;;;;;;;5134076;27;20217;-69
2021/04/29 04:21:37;;;;;;;0.10;0.10;;;;;;;;;;5145201;27;20205;-68
2021/04/29 04:24:03;;;;;;;0.10;0.10;;;;;;;;;;5145069;27;20222;-68
2021/04/29 04:26:29;;;;;;;0.10;0.10;;;;;;;;;;5133188;27;20277;-68
2021/04/29 04:28:55;;;;;;;0.10;0.10;;;;;;;;;;5144253;27;20213;-67
2021/04/29 04:31:21;;;;;;;0.10;0.10;;;;;;;;;;5138666;27;20200;-68
2021/04/29 04:33:47;;;;;;;0.10;0.10;;;;;;;;;;5137923;27;20208;-66
2021/04/29 04:36:13;;;;;;;0.10;0.10;;;;;;;;;;5145519;27;20525;-68
2021/04/29 04:38:39;;;;;;;0.10;0.10;;;;;;;;;;5145500;27;20215;-67
2021/04/29 04:41:05;;;;;;;0.10;0.10;;;;;;;;;;5141532;27;20398;-67
2021/04/29 04:43:30;;;;;;;0.10;0.10;;;;;;;;;;5135411;27;20567;-66
2021/04/29 04:45:56;;;;;;;0.10;0.10;;;;;;;;;;5134179;27;20205;-67
2021/04/29 04:48:22;;;;;;;0.10;0.10;;;;;;;;;;5145135;27;20206;-67
2021/04/29 04:50:48;;;;;;;0.10;0.10;;;;;;;;;;5131515;27;20202;-68
2021/04/29 04:53:14;;;;;;;0.10;0.10;;;;;;;;;;5135691;27;20393;-68
2021/04/29 04:55:44;;;;;;;0.10;0.10;;;;;;;;;;5136905;27;20227;-67
2021/04/29 04:58:10;;;;;;;0.10;0.10;;;;;;;;;;5138340;27;20213;-67
2021/04/29 05:00:36;;;;;;;0.10;0.10;;;;;;;;;;5144316;27;20607;-68
2021/04/29 05:03:02;;;;;;;0.10;0.10;;;;;;;;;;5133013;27;20203;-67
2021/04/29 05:05:28;;;;;;;0.10;0.10;;;;;;;;;;5137935;27;20199;-68
2021/04/29 05:07:55;;;;;;;0.10;0.10;;;;;;;;;;5135978;27;20246;-68
2021/04/29 05:10:22;;;;;;;0.17;0.17;;;;;;;;;;5143998;27;20493;-68
2021/04/29 05:12:47;;;;;;;0.10;0.10;;;;;;;;;;5143791;27;20204;-68
2021/04/29 05:15:13;;;;;;;0.10;0.10;;;;;;;;;;5130211;28;20211;-67
2021/04/29 05:17:39;;;;;;;0.10;0.10;;;;;;;;;;5144366;28;20215;-66
2021/04/29 05:20:05;;;;;;;0.10;0.10;;;;;;;;;;5136904;28;20219;-67
2021/04/29 05:22:31;;;;;;;0.10;0.10;;;;;;;;;;5131679;28;20323;-69
2021/04/29 05:24:57;;;;;;;0.10;0.10;;;;;;;;;;5144869;28;20293;-68
2021/04/29 05:27:23;;;;;;;0.10;0.10;;;;;;;;;;5131498;28;20204;-67
2021/04/29 05:29:50;;;;;;;0.10;0.10;;;;;;;;;;5132067;28;20204;-66
2021/04/29 05:32:16;;;;;;;0.10;0.10;;;;;;;;;;5129991;28;20207;-69
2021/04/29 05:34:41;;;;;;;0.10;0.10;;;;;;;;;;5137499;28;20257;-67
2021/04/29 05:37:07;;;;;;;0.10;0.10;;;;;;;;;;5136040;28;20277;-67
2021/04/29 05:39:33;;;;;;;0.10;0.10;;;;;;;;;;5144558;28;20217;-68
2021/04/29 05:41:59;;;;;;;0.10;0.10;;;;;;;;;;5144096;28;20260;-67
2021/04/29 05:44:25;;;;;;;0.10;0.10;;;;;;;;;;5135076;28;20263;-67
2021/04/29 05:46:51;;;;;;;0.10;0.10;;;;;;;;;;5144178;28;20276;-67
2021/04/29 05:49:17;;;;;;;0.10;0.10;;;;;;;;;;5137224;28;20391;-67
2021/04/29 05:51:42;;;;;;;0.10;0.10;;;;;;;;;;5140719;28;20199;-67
2021/04/29 05:54:08;;;;;;;0.10;0.10;;;;;;;;;;5131429;28;20207;-67
2021/04/29 05:56:34;;;;;;;0.10;0.10;;;;;;;;;;5138433;28;20328;-69
2021/04/29 05:59:00;;;;;;;0.10;0.10;;;;;;;;;;5144377;28;20200;-67
2021/04/29 06:01:26;;;;;;;0.10;0.10;;;;;;;;;;5142091;28;20456;-67
2021/04/29 06:03:52;;;;;;;1.37;1.37;;;;;;;;;;5135794;28;20492;-68
2021/04/29 06:06:18;;;;;;;0.10;0.10;;;;;;;;;;5130393;28;20227;-68
2021/04/29 06:08:44;;;;;;;0.20;0.20;;;;;;;;;;5134824;28;20528;-67
2021/04/29 06:11:10;;;;;;;0.10;0.10;;;;;;;;;;5128366;28;20212;-67
2021/04/29 06:13:36;;;;;;;0.10;0.10;;;;;;;;;;5140916;27;20248;-69
2021/04/29 06:16:01;;;;;;;0.10;0.10;;;;;;;;;;5135535;27;20200;-68
2021/04/29 06:18:28;;;;;;;0.10;0.10;;;;;;;;;;5142072;28;20223;-68
2021/04/29 06:20:54;;;;;;;0.10;0.10;;;;;;;;;;5135736;27;20292;-68
2021/04/29 06:23:20;;;;;;;0.10;0.10;;;;;;;;;;5139795;27;20232;-67
2021/04/29 06:25:46;;;;;;;0.10;0.10;;;;;;;;;;5137111;27;20505;-67
2021/04/29 06:28:11;;;;;;;0.10;0.10;;;;;;;;;;5140862;27;20279;-68
2021/04/29 06:30:40;;;;;;;0.10;0.10;;;;;;;;;;5140539;27;20202;-67
2021/04/29 06:33:06;;;;;;;0.10;0.10;;;;;;;;;;5139472;27;20243;-67
2021/04/29 06:35:32;;;;;;;0.10;0.10;;;;;;;;;;5141989;27;20488;-68
2021/04/29 06:37:58;;;;;;;0.10;0.10;;;;;;;;;;5135950;27;20392;-68
2021/04/29 06:40:25;;;;;;;0.10;0.10;;;;;;;;;;5137587;27;20280;-67
2021/04/29 06:42:51;;;;;;;0.10;0.10;;;;;;;;;;5140220;27;20207;-67
2021/04/29 06:45:17;;;;;;;0.10;0.10;;;;;;;;;;5136663;27;20422;-68
2021/04/29 06:47:42;;;;;;;0.10;0.10;;;;;;;;;;5140481;27;20237;-68
2021/04/29 06:50:09;;;;;;;0.10;0.10;;;;;;;;;;5139646;27;20519;-70
2021/04/29 06:52:35;;;;;;;0.10;0.10;;;;;;;;;;5137182;27;20203;-68
2021/04/29 06:55:01;;;;;;;0.10;0.10;;;;;;;;;;5143520;27;20247;-71
2021/04/29 06:57:27;;;;;;;0.10;0.10;;;;;;;;;;5144015;27;20568;-70
2021/04/29 06:59:53;;;;;;;0.10;0.10;;;;;;;;;;5152909;27;20220;-69
2021/04/29 07:02:19;;;;;;;0.10;0.10;;;;;;;;;;5139343;27;20214;-70
2021/04/29 07:04:45;;;;;;;0.10;0.10;;;;;;;;;;5147011;27;20200;-69
2021/04/29 07:07:10;;;;;;;0.10;0.10;;;;;;;;;;5141377;27;20203;-68
2021/04/29 07:09:37;;;;;;;0.10;0.10;;;;;;;;;;5146566;27;20467;-69
2021/04/29 07:12:03;;;;;;;0.10;0.10;;;;;;;;;;5140345;27;20516;-70
2021/04/29 07:14:29;;;;;;;0.10;0.10;;;;;;;;;;5144091;27;20232;-69
2021/04/29 07:16:54;;;;;;;0.10;0.10;;;;;;;;;;5136245;27;20280;-69
2021/04/29 07:19:20;;;;;;;0.10;0.10;;;;;;;;;;5142030;27;20229;-69
2021/04/29 07:21:46;;;;;;;0.10;0.10;;;;;;;;;;5146568;27;20199;-70
2021/04/29 07:24:12;;;;;;;0.10;0.10;;;;;;;;;;5144457;27;20236;-70
2021/04/29 07:26:39;;;;;;;0.10;0.10;;;;;;;;;;5141093;27;20501;-69
2021/04/29 07:29:05;;;;;;;0.13;0.13;;;;;;;;;;5146205;27;20201;-69
2021/04/29 07:31:31;;;;;;;0.10;0.10;;;;;;;;;;5138050;27;20200;-69
2021/04/29 07:33:57;;;;;;;0.10;0.10;;;;;;;;;;5137149;27;20221;-69
2021/04/29 07:36:22;;;;;;;0.10;0.10;;;;;;;;;;5140475;27;20260;-69
2021/04/29 07:38:48;;;;;;;0.10;0.10;;;;;;;;;;5132741;27;20424;-69
2021/04/29 07:41:14;;;;;;;0.10;0.10;;;;;;;;;;5144482;27;20234;-70
2021/04/29 07:43:41;;;;;;;0.10;0.10;;;;;;;;;;5139910;27;20267;-69
2021/04/29 07:46:06;;;;;;;0.10;0.10;;;;;;;;;;5145120;27;20394;-69
2021/04/29 07:48:32;;;;;;;0.10;0.10;;;;;;;;;;5144494;27;20199;-69
2021/04/29 07:50:59;;;;;;;0.10;0.10;;;;;;;;;;5145800;27;20207;-68
2021/04/29 07:53:25;;;;;;;0.10;0.10;;;;;;;;;;5145653;27;20222;-69
2021/04/29 07:55:51;;;;;;;0.10;0.10;;;;;;;;;;5144684;27;20202;-69
2021/04/29 07:58:17;;;;;;;0.10;0.10;;;;;;;;;;5143528;27;20237;-69
2021/04/29 08:00:44;;;;;;;0.10;0.10;;;;;;;;;;5145828;27;20539;-69
2021/04/29 08:03:09;;;;;;;0.10;0.10;;;;;;;;;;5142257;27;20206;-68
2021/04/29 08:05:35;;;;;;;0.10;0.10;;;;;;;;;;5136945;27;20243;-71
2021/04/29 08:08:02;;;;;;;0.17;0.17;;;;;;;;;;5151435;27;20202;-69
2021/04/29 08:10:27;;;;;;;0.10;0.10;;;;;;;;;;5147480;27;20204;-68
2021/04/29 08:12:53;;;;;;;0.10;0.10;;;;;;;;;;5138342;27;20422;-69
2021/04/29 08:15:20;;;;;;;1.33;1.33;;;;;;;;;;5138469;27;20276;-68
2021/04/29 08:17:46;;;;;;;0.10;0.10;;;;;;;;;;5141303;27;20221;-69
2021/04/29 08:20:13;;;;;;;0.10;0.10;;;;;;;;;;5135456;27;20258;-69
2021/04/29 08:22:39;;;;;;;0.10;0.10;;;;;;;;;;5132980;27;20580;-70
2021/04/29 08:25:06;;;;;;;0.10;0.10;;;;;;;;;;5143153;27;20263;-69
2021/04/29 08:27:32;;;;;;;0.10;0.10;;;;;;;;;;5125237;28;20265;-69
2021/04/29 08:29:58;;;;;;;0.10;0.10;;;;;;;;;;5139427;27;20197;-70
2021/04/29 08:32:24;;;;;;;0.10;0.10;;;;;;;;;;5134148;27;20198;-69
2021/04/29 08:34:51;;;;;;;0.10;0.10;;;;;;;;;;5128147;27;20211;-71
2021/04/29 08:37:18;;;;;;;0.10;0.10;;;;;;;;;;5141116;27;20207;-70
2021/04/29 08:39:44;;;;;;;0.10;0.10;;;;;;;;;;5129224;27;20229;-67
2021/04/29 08:42:13;;;;;;;0.10;0.10;;;;;;;;;;5131419;27;20210;-67
2021/04/29 08:44:39;;;;;;;0.10;0.10;;;;;;;;;;5139448;27;20266;-68
2021/04/29 08:47:06;;;;;;;0.10;0.10;;;;;;;;;;5124073;28;20308;-68
2021/04/29 08:49:32;;;;;;;0.10;0.10;;;;;;;;;;5128322;27;20199;-69
2021/04/29 08:52:00;;;;;;;0.10;0.10;;;;;;;;;;5141548;27;20205;-68
2021/04/29 08:54:26;;;;;;;0.10;0.10;;;;;;;;;;5133401;27;20233;-68
2021/04/29 08:56:53;;;;;;;0.10;0.10;;;;;;;;;;5140844;27;20260;-68
2021/04/29 08:59:19;;;;;;;0.10;0.10;;;;;;;;;;5142202;27;20201;-68
2021/04/29 09:01:46;;;;;;;0.10;0.10;;;;;;;;;;5142387;27;20378;-67
2021/04/29 09:07:46;;;;;;;0.10;0.10;;;;;;;;;;5138332;27;20172;-67
2021/04/29 09:10:21;;;;;;;0.10;0.10;;;;;;;;;;5139347;27;20198;-67
2021/04/29 09:12:47;;;;;;;0.10;0.10;;;;;;;;;;5137835;27;20206;-68
2021/04/29 09:15:21;;;;;;;0.10;0.10;;;;;;;;;;5142943;27;20393;-68
2021/04/29 09:17:46;;;;;;;0.10;0.10;;;;;;;;;;5133320;27;20389;-69
2021/04/29 09:20:13;;;;;;;0.10;0.10;;;;;;;;;;5144901;27;20226;-71
2021/04/29 09:22:39;;;;;;;0.10;0.10;;;;;;;;;;5143167;27;20230;-71
2021/04/29 09:25:11;;;;;;;0.10;0.10;;;;;;;;;;5135058;28;20474;-69
2021/04/29 09:27:37;;;;;;;0.10;0.10;;;;;;;;;;5139280;28;20201;-69
2021/04/29 09:30:04;;;;;;;0.10;0.10;;;;;;;;;;5139505;28;20197;-70
2021/04/29 09:32:32;;;;;;;0.10;0.10;;;;;;;;;;5140228;28;20253;-70
2021/04/29 09:34:59;;;;;;;0.10;0.10;;;;;;;;;;5134193;28;20291;-69
2021/04/29 09:37:28;;;;;;;0.10;0.10;;;;;;;;;;5143176;28;20262;-69
2021/04/29 09:39:55;;;;;;;0.10;0.10;;;;;;;;;;5138143;27;20510;-69
2021/04/29 09:42:27;;;;;;;0.10;0.10;;;;;;;;;;5139590;28;20226;-70
2021/04/29 09:44:54;;;;;;;0.10;0.10;;;;;;;;;;5144391;28;20271;-68
2021/04/29 09:47:20;;;;;;;0.10;0.10;;;;;;;;;;5136071;27;20225;-69
2021/04/29 09:49:46;;;;;;;0.10;0.10;;;;;;;;;;5134132;27;20202;-70
2021/04/29 09:52:17;;;;;;;0.10;0.10;;;;;;;;;;5133006;28;20204;-70
2021/04/29 09:54:43;;;;;;;0.10;0.10;;;;;;;;;;5140239;27;20198;-71
2021/04/29 09:57:09;;;;;;;0.10;0.10;;;;;;;;;;5146375;27;20220;-70
2021/04/29 09:59:40;;;;;;;0.10;0.10;;;;;;;;;;5146024;27;20231;-70
2021/04/29 10:02:07;;;;;;;0.10;0.10;;;;;;;;;;5138348;27;20219;-70
2021/04/29 10:04:33;;;;;;;0.10;0.10;;;;;;;;;;5133289;27;20275;-70
2021/04/29 10:07:00;;;;;;;0.10;0.10;;;;;;;;;;5148537;27;20201;-70
2021/04/29 10:09:27;;;;;;;0.10;0.10;;;;;;;;;;5144066;27;20205;-70
2021/04/29 10:11:56;;;;;;;0.20;0.20;;;;;;;;;;5139990;27;20201;-69
2021/04/29 10:14:24;;;;;;;0.10;0.10;;;;;;;;;;5143208;27;20214;-69
2021/04/29 10:16:50;;;;;;;1.00;1.00;;;;;;;;;;5143704;27;20217;-70
2021/04/29 10:19:17;;;;;;;0.10;0.10;;;;;;;;;;5144427;27;20209;-69
2021/04/29 10:21:43;;;;;;;0.10;0.10;;;;;;;;;;5141754;27;20195;-69
2021/04/29 10:24:10;;;;;;;0.10;0.10;;;;;;;;;;5144421;27;20237;-69
2021/04/29 10:26:37;;;;;;;0.10;0.10;;;;;;;;;;5137856;27;20204;-70
2021/04/29 10:29:04;;;;;;;0.10;0.10;;;;;;;;;;5145925;27;20201;-70
2021/04/29 10:31:31;;;;;;;0.10;0.10;;;;;;;;;;5140787;27;20239;-70
2021/04/29 10:33:57;;;;;;;0.10;0.10;;;;;;;;;;5144644;27;20384;-69
2021/04/29 10:36:35;;;;;;;0.10;0.10;;;;;;;;;;5133805;27;20207;-69
2021/04/29 10:39:08;;;;;;;0.10;0.10;;;;;;;;;;5140981;27;20253;-69
2021/04/29 10:41:34;;;;;;;0.10;0.10;;;;;;;;;;5138762;27;20216;-69
2021/04/29 10:44:07;;;;;;;0.10;0.10;;;;;;;;;;5133515;27;20212;-69
2021/04/29 10:46:33;;;;;;;0.10;0.10;;;;;;;;;;5137023;27;20362;-70
2021/04/29 10:49:00;;;;;;;0.10;0.10;;;;;;;;;;5146515;27;20206;-69
2021/04/29 10:51:31;;;;;;;0.10;0.10;;;;;;;;;;5138923;27;20200;-69
2021/04/29 10:54:07;;;;;;;0.10;0.10;;;;;;;;;;5146485;27;20261;-68
2021/04/29 10:56:33;;;;;;;0.10;0.10;;;;;;;;;;5147079;27;20226;-69
2021/04/29 10:59:06;;;;;;;0.10;0.10;;;;;;;;;;5144281;27;20269;-69
2021/04/29 11:01:37;;;;;;;0.10;0.10;;;;;;;;;;5147152;27;20547;-71
2021/04/29 11:04:12;;;;;;;0.10;0.10;;;;;;;;;;5135896;27;20198;-69
2021/04/29 11:06:39;;;;;;;0.10;0.10;;;;;;;;;;5144503;27;20239;-70
2021/04/29 11:09:15;;;;;;;0.10;0.10;;;;;;;;;;5140538;27;20537;-70
2021/04/29 11:11:40;;;;;;;0.10;0.10;;;;;;;;;;5140335;27;20197;-70
2021/04/29 11:14:07;;;;;;;0.10;0.10;;;;;;;;;;5131347;27;20408;-71
2021/04/29 11:16:43;;;;;;;0.00;0.00;;;;;;;;;;5131719;27;20263;-69
2021/04/29 11:19:09;;;;;;;0.10;0.10;;;;;;;;;;5136999;27;20203;-69
2021/04/29 11:21:35;;;;;;;0.10;0.10;;;;;;;;;;5128348;27;20575;-70
2021/04/29 11:24:02;;;;;;;0.10;0.10;;;;;;;;;;5134672;27;20272;-69
2021/04/29 11:26:34;;;;;;;0.10;0.10;;;;;;;;;;5142579;27;20212;-69
2021/04/29 11:29:00;;;;;;;0.10;0.10;;;;;;;;;;5145678;27;20501;-69
2021/04/29 11:31:26;;;;;;;0.10;0.10;;;;;;;;;;5146650;27;20196;-69
2021/04/29 11:33:52;;;;;;;10.30;9.73;;;;;;;;;;5145981;27;20313;-69
2021/04/29 11:36:19;;;;;;;0.10;0.10;;;;;;;;;;5146311;27;20297;-69
2021/04/29 11:38:51;;;;;;;0.10;0.10;;;;;;;;;;5141436;27;20279;-69
2021/04/29 11:41:19;;;;;;;3.00;2.33;;;;;;;;;;5135007;27;20219;-69
2021/04/29 11:43:54;;;;;;;1.23;0.73;;;;;;;;;;5140496;27;20212;-70
2021/04/29 11:46:21;;;;;;;0.10;0.10;;;;;;;;;;5139210;27;20530;-69
2021/04/29 11:48:54;;;;;;;0.37;0.37;;;;;;;;;;5142105;27;20246;-69
2021/04/29 11:51:20;;;;;;;0.10;0.10;;;;;;;;;;5141848;27;20198;-69
2021/04/29 11:53:45;;;;;;;0.10;0.10;;;;;;;;;;5136163;27;20194;-69
2021/04/29 11:56:13;;;;;;;0.10;0.10;;;;;;;;;;5144871;27;20387;-69
2021/04/29 11:58:41;;;;;;;0.10;0.10;;;;;;;;;;5140093;27;20263;-69
2021/04/29 12:01:12;;;;;;;0.10;0.10;;;;;;;;;;5142633;27;20231;-69
2021/04/29 12:03:38;;;;;;;0.03;0.03;;;;;;;;;;5144229;27;20383;-69
2021/04/29 12:06:04;;;;;;;0.10;0.10;;;;;;;;;;5140638;27;20212;-69
2021/04/29 12:08:33;;;;;;;0.10;0.10;;;;;;;;;;5134960;27;20381;-70
2021/04/29 12:10:59;;;;;;;0.10;0.10;;;;;;;;;;5143289;27;20535;-76
2021/04/29 12:13:29;;;;;;;0.60;0.60;;;;;;;;;;5144196;27;20237;-76
2021/04/29 12:15:57;;;;;;;0.10;0.10;;;;;;;;;;5137162;27;20201;-75
2021/04/29 12:18:23;;;;;;;0.10;0.10;;;;;;;;;;5137604;27;20205;-74
2021/04/29 12:20:49;;;;;;;0.10;0.10;;;;;;;;;;5137643;27;20250;-74
2021/04/29 12:23:16;;;;;;;0.10;0.10;;;;;;;;;;5137973;27;20333;-74
2021/04/29 12:25:42;;;;;;;0.03;0.03;;;;;;;;;;5139817;27;20226;-74
2021/04/29 12:28:15;;;;;;;0.10;0.10;;;;;;;;;;5125450;28;20204;-73
2021/04/29 12:30:41;;;;;;;0.00;0.00;;;;;;;;;;5138369;27;20245;-70
2021/04/29 12:33:14;;;;;;;0.10;0.10;;;;;;;;;;5132044;27;20258;-69
2021/04/29 12:35:40;;;;;;;0.10;0.10;;;;;;;;;;5140727;27;20208;-72
2021/04/29 12:38:07;;;;;;;0.10;0.10;;;;;;;;;;5139537;27;20355;-70
2021/04/29 12:40:34;;;;;;;0.10;0.10;;;;;;;;;;5135358;27;20578;-71
2021/04/29 12:43:14;;;;;;;0.10;0.10;;;;;;;;;;5138900;27;20485;-69
2021/04/29 12:45:49;;;;;;;0.10;0.10;;;;;;;;;;5145001;27;20204;-70
2021/04/29 12:48:23;;;;;;;0.10;0.10;;;;;;;;;;5143918;27;20226;-70
2021/04/29 12:50:58;;;;;;;0.00;0.00;;;;;;;;;;5137407;27;20292;-70
2021/04/29 12:53:24;;;;;;;0.10;0.10;;;;;;;;;;5140769;27;20244;-69
2021/04/29 12:55:50;;;;;;;0.00;0.00;;;;;;;;;;5144711;27;20237;-69
2021/04/29 12:58:17;;;;;;;0.10;0.10;;;;;;;;;;5139105;27;20216;-69
2021/04/29 13:00:49;;;;;;;0.03;0.03;;;;;;;;;;5138133;27;20288;-71
2021/04/29 13:03:15;;;;;;;0.10;0.10;;;;;;;;;;5138281;27;20367;-70
2021/04/29 13:05:42;;;;;;;0.03;0.03;;;;;;;;;;5132675;27;20224;-69
2021/04/29 13:08:07;;;;;;;0.10;0.10;;;;;;;;;;5142333;27;20271;-70
2021/04/29 13:10:40;;;;;;;0.10;0.10;;;;;;;;;;5133455;27;20208;-69
2021/04/29 13:13:06;;;;;;;0.03;0.03;;;;;;;;;;5138089;27;20564;-69
2021/04/29 13:15:32;;;;;;;0.00;0.00;;;;;;;;;;5124404;28;20205;-71
2021/04/29 13:17:58;;;;;;;0.03;0.03;;;;;;;;;;5132179;27;20216;-69
2021/04/29 13:20:24;;;;;;;1.40;1.40;;;;;;;;;;5141861;27;20213;-69
2021/04/29 13:22:51;;;;;;;0.10;0.10;;;;;;;;;;5146981;27;20246;-70
2021/04/29 13:25:18;;;;;;;0.10;0.10;;;;;;;;;;5144545;28;20274;-71
2021/04/29 13:27:44;;;;;;;0.10;0.10;;;;;;;;;;5139091;28;20203;-69
2021/04/29 13:30:11;;;;;;;0.00;0.00;;;;;;;;;;5143957;27;20200;-69
2021/04/29 13:32:38;;;;;;;0.10;0.10;;;;;;;;;;5140469;27;20404;-69
2021/04/29 13:35:04;;;;;;;0.10;0.10;;;;;;;;;;5148803;27;20391;-70
2021/04/29 13:37:30;;;;;;;0.10;0.10;;;;;;;;;;5135656;27;20220;-72
2021/04/29 13:39:57;;;;;;;0.10;0.10;;;;;;;;;;5141863;27;20228;-68
2021/04/29 13:42:24;;;;;;;0.10;0.10;;;;;;;;;;5137703;27;20209;-70
2021/04/29 13:44:50;;;;;;;0.10;0.10;;;;;;;;;;5138481;27;20260;-70
2021/04/29 13:47:16;;;;;;;0.10;0.10;;;;;;;;;;5148212;27;20446;-69
2021/04/29 13:49:42;;;;;;;0.10;0.10;;;;;;;;;;5150576;27;20219;-69
2021/04/29 13:52:09;;;;;;;0.10;0.10;;;;;;;;;;5139664;27;20378;-70
2021/04/29 13:54:35;;;;;;;0.10;0.10;;;;;;;;;;5148137;27;20203;-70
2021/04/29 13:57:01;;;;;;;0.10;0.10;;;;;;;;;;5146196;27;20284;-70
2021/04/29 13:59:27;;;;;;;0.10;0.10;;;;;;;;;;5148863;27;20274;-69
2021/04/29 14:01:53;;;;;;;0.10;0.10;;;;;;;;;;5140254;27;20227;-70
2021/04/29 14:04:19;;;;;;;0.10;0.10;;;;;;;;;;5148475;27;20203;-70
2021/04/29 14:06:46;;;;;;;0.10;0.10;;;;;;;;;;5148489;27;20210;-70
2021/04/29 14:09:12;;;;;;;0.00;0.00;;;;;;;;;;5127353;28;20249;-70
2021/04/29 14:11:38;;;;;;;0.00;0.00;;;;;;;;;;5146997;27;20199;-70
2021/04/29 14:14:05;;;;;;;0.10;0.10;;;;;;;;;;5133490;27;20266;-70
2021/04/29 14:16:31;;;;;;;0.00;0.00;;;;;;;;;;5141612;27;20237;-70
2021/04/29 14:18:57;;;;;;;0.10;0.10;;;;;;;;;;5140323;27;20201;-70
2021/04/29 14:21:23;;;;;;;0.10;0.10;;;;;;;;;;5131519;27;20219;-71
2021/04/29 14:23:49;;;;;;;0.10;0.10;;;;;;;;;;5142184;27;20528;-70
2021/04/29 14:26:16;;;;;;;0.10;0.10;;;;;;;;;;5143447;27;20493;-70
2021/04/29 14:28:43;;;;;;;0.10;0.10;;;;;;;;;;5145049;27;20502;-69
2021/04/29 14:31:10;;;;;;;0.10;0.10;;;;;;;;;;5146802;27;20198;-70
2021/04/29 14:33:36;;;;;;;0.10;0.10;;;;;;;;;;5145706;27;20394;-70
2021/04/29 14:36:04;;;;;;;0.10;0.10;;;;;;;;;;5132368;27;20202;-70
2021/04/29 14:38:30;;;;;;;0.10;0.10;;;;;;;;;;5146222;27;20205;-69
2021/04/29 14:40:56;;;;;;;0.00;0.00;;;;;;;;;;5136017;27;20257;-70
2021/04/29 14:43:22;;;;;;;0.00;0.00;;;;;;;;;;5128546;27;20205;-69